createdAt,value
2019-02-15T00:01:44.609Z,22.87
2019-02-15T00:04:16.431Z,26.30
2019-02-15T00:06:48.863Z,20.13
2019-02-15T00:09:19.622Z,16.80
2019-02-15T00:11:50.794Z,17.30
2019-02-15T00:14:22.426Z,16.77
2019-02-15T00:16:54.347Z,18.53
2019-02-15T00:19:27.637Z,21.07
2019-02-15T00:21:59.059Z,17.40
2019-02-15T00:24:30.898Z,18.30
2019-02-15T00:27:01.826Z,17.03
2019-02-15T00:29:32.623Z,18.80
2019-02-15T00:32:06.275Z,18.13
2019-02-15T00:34:37.655Z,18.60
2019-02-15T00:37:09.028Z,18.13
2019-02-15T00:39:40.073Z,17.77
2019-02-15T00:42:11.073Z,16.13
2019-02-15T00:44:42.567Z,16.80
2019-02-15T00:47:15.063Z,17.53
2019-02-15T00:49:46.483Z,18.10
2019-02-15T00:52:19.458Z,15.80
2019-02-15T00:54:51.796Z,17.03
2019-02-15T00:57:24.571Z,16.00
2019-02-15T00:59:57.535Z,17.70
2019-02-15T01:02:30.055Z,16.00
2019-02-15T01:05:02.766Z,17.57
2019-02-15T01:07:35.695Z,17.60
2019-02-15T01:10:08.669Z,18.57
2019-02-15T01:12:41.840Z,19.50
2019-02-15T01:15:13.714Z,17.57
2019-02-15T01:17:45.628Z,17.77
2019-02-15T01:20:17.262Z,16.70
2019-02-15T01:22:48.624Z,18.90
2019-02-15T01:25:20.366Z,18.73
2019-02-15T01:27:52.803Z,19.57
2019-02-15T01:30:25.674Z,17.23
2019-02-15T01:32:59.081Z,19.73
2019-02-15T01:35:32.465Z,17.67
2019-02-15T01:38:05.167Z,17.87
2019-02-15T01:40:37.368Z,18.37
2019-02-15T01:43:10.208Z,18.00
2019-02-15T01:45:42.493Z,16.80
2019-02-15T01:48:13.539Z,18.50
2019-02-15T01:50:44.954Z,19.83
2019-02-15T01:53:16.105Z,18.03
2019-02-15T01:55:47.062Z,20.03
2019-02-15T01:58:17.740Z,20.03
2019-02-15T02:00:49.171Z,19.53
2019-02-15T02:03:21.995Z,19.77
2019-02-15T02:05:53.222Z,19.30
2019-02-15T02:08:26.046Z,19.87
2019-02-15T02:10:56.626Z,18.70
2019-02-15T02:13:27.246Z,20.63
2019-02-15T02:15:58.137Z,19.77
2019-02-15T02:18:29.226Z,20.20
2019-02-15T02:21:00.175Z,19.33
2019-02-15T02:23:31.450Z,20.17
2019-02-15T02:26:02.559Z,19.90
2019-02-15T02:28:33.750Z,19.90
2019-02-15T02:31:04.992Z,22.27
2019-02-15T02:33:37.809Z,20.67
2019-02-15T02:36:08.684Z,21.33
2019-02-15T02:38:39.473Z,20.33
2019-02-15T02:41:10.491Z,22.13
2019-02-15T02:43:41.539Z,21.50
2019-02-15T02:46:13.301Z,21.27
2019-02-15T02:48:44.664Z,20.67
2019-02-15T02:51:16.774Z,20.80
2019-02-15T02:53:48.066Z,20.47
2019-02-15T02:56:18.858Z,21.87
2019-02-15T02:58:50.041Z,23.47
2019-02-15T03:01:23.152Z,22.30
2019-02-15T03:03:54.700Z,22.10
2019-02-15T03:06:25.825Z,20.93
2019-02-15T03:08:56.981Z,19.70
2019-02-15T03:11:28.620Z,21.67
2019-02-15T03:14:10.720Z,21.13
2019-02-15T03:16:32.417Z,22.80
2019-02-15T03:19:03.674Z,22.47
2019-02-15T03:21:34.824Z,21.37
2019-02-15T03:24:05.755Z,23.27
2019-02-15T03:26:37.756Z,22.40
2019-02-15T03:29:08.473Z,21.50
2019-02-15T03:31:39.336Z,22.47
2019-02-15T03:34:11.039Z,21.23
2019-02-15T03:36:44.050Z,23.17
2019-02-15T03:39:16.837Z,22.07
2019-02-15T03:41:47.921Z,22.60
2019-02-15T03:44:22.314Z,23.30
2019-02-15T03:46:52.175Z,21.33
2019-02-15T03:49:23.597Z,22.47
2019-02-15T03:51:54.863Z,22.70
2019-02-15T03:54:26.071Z,23.83
2019-02-15T03:56:56.809Z,23.93
2019-02-15T03:59:27.579Z,24.37
2019-02-15T04:01:58.712Z,23.27
2019-02-15T04:04:30.224Z,22.60
2019-02-15T04:07:01.211Z,23.00
2019-02-15T04:09:32.451Z,23.23
2019-02-15T04:12:03.302Z,23.33
2019-02-15T04:14:34.401Z,22.97
2019-02-15T04:17:05.540Z,21.90
2019-02-15T04:19:36.750Z,23.10
2019-02-15T04:22:07.517Z,22.80
2019-02-15T04:24:38.249Z,22.60
2019-02-15T04:27:09.103Z,21.73
2019-02-15T04:29:40.271Z,24.10
2019-02-15T04:32:11.305Z,24.97
2019-02-15T04:34:45.765Z,23.60
2019-02-15T04:37:16.636Z,23.63
2019-02-15T04:39:47.826Z,22.53
2019-02-15T04:42:18.932Z,23.67
2019-02-15T04:44:50.346Z,24.30
2019-02-15T04:47:21.392Z,24.87
2019-02-15T04:49:52.829Z,26.00
2019-02-15T04:52:25.207Z,25.50
2019-02-15T04:54:56.758Z,27.37
2019-02-15T04:57:27.762Z,25.30
2019-02-15T04:59:58.694Z,24.43
2019-02-15T05:02:33.670Z,25.20
2019-02-15T05:05:05.445Z,26.67
2019-02-15T05:07:37.032Z,24.50
2019-02-15T05:10:08.512Z,23.20
2019-02-15T05:12:39.537Z,23.60
2019-02-15T05:15:11.245Z,22.40
2019-02-15T05:17:42.624Z,24.47
2019-02-15T05:20:13.427Z,23.47
2019-02-15T05:22:44.393Z,23.50
2019-02-15T05:25:15.317Z,24.67
2019-02-15T05:27:46.497Z,22.23
2019-02-15T05:30:17.918Z,25.40
2019-02-15T05:32:49.103Z,23.60
2019-02-15T05:35:20.246Z,23.90
2019-02-15T05:37:52.708Z,22.50
2019-02-15T05:40:23.677Z,23.73
2019-02-15T05:42:54.797Z,23.67
2019-02-15T05:45:26.045Z,23.00
2019-02-15T05:47:58.313Z,21.00
2019-02-15T05:50:30.711Z,21.80
2019-02-15T05:53:02.497Z,21.43
2019-02-15T05:55:33.513Z,21.70
2019-02-15T05:58:04.795Z,23.37
2019-02-15T06:00:37.287Z,22.53
2019-02-15T06:03:09.834Z,22.03
2019-02-15T06:05:41.553Z,22.73
2019-02-15T06:08:13.191Z,22.40
2019-02-15T06:10:44.737Z,23.33
2019-02-15T06:13:16.270Z,20.97
2019-02-15T06:15:47.789Z,21.40
2019-02-15T06:18:19.799Z,22.03
2019-02-15T06:20:51.381Z,21.33
2019-02-15T06:23:23.985Z,20.10
2019-02-15T06:25:56.221Z,23.40
2019-02-15T06:28:27.833Z,22.57
2019-02-15T06:30:59.954Z,24.27
2019-02-15T06:33:31.049Z,21.63
2019-02-15T06:36:02.947Z,22.00
2019-02-15T06:38:35.076Z,23.53
2019-02-15T06:41:07.485Z,21.70
2019-02-15T06:43:40.409Z,21.53
2019-02-15T06:46:12.187Z,24.40
2019-02-15T06:48:44.222Z,26.83
2019-02-15T06:51:15.286Z,23.33
2019-02-15T06:53:46.986Z,23.53
2019-02-15T06:56:19.493Z,23.87
2019-02-15T06:58:53.295Z,24.13
2019-02-15T07:01:26.231Z,23.87
2019-02-15T07:03:59.614Z,22.47
2019-02-15T07:06:30.600Z,21.47
2019-02-15T07:09:01.362Z,21.17
2019-02-15T07:11:33.935Z,21.10
2019-02-15T07:14:05.255Z,20.67
2019-02-15T07:16:36.147Z,22.23
2019-02-15T07:19:07.069Z,22.10
2019-02-15T07:21:37.620Z,23.90
2019-02-15T07:24:08.342Z,22.90
2019-02-15T07:26:39.495Z,23.10
2019-02-15T07:29:10.016Z,23.60
2019-02-15T07:31:40.699Z,21.97
2019-02-15T07:34:11.290Z,23.90
2019-02-15T07:36:42.777Z,23.80
2019-02-15T07:39:13.778Z,24.07
2019-02-15T07:41:44.848Z,25.83
2019-02-15T07:44:16.095Z,23.37
2019-02-15T07:46:48.057Z,25.77
2019-02-15T07:49:26.650Z,23.37
2019-02-15T07:51:51.657Z,25.77
2019-02-15T07:54:23.882Z,24.93
2019-02-15T07:56:54.897Z,25.73
2019-02-15T07:59:25.862Z,26.07
2019-02-15T08:02:01.806Z,24.33
2019-02-15T08:04:30.665Z,24.67
2019-02-15T08:07:03.530Z,21.73
2019-02-15T08:09:36.890Z,23.67
2019-02-15T08:12:09.895Z,26.17
2019-02-15T08:14:41.729Z,23.73
2019-02-15T08:17:13.411Z,26.13
2019-02-15T08:19:44.735Z,22.90
2019-02-15T08:22:17.574Z,24.83
2019-02-15T08:24:48.288Z,21.87
2019-02-15T08:27:19.729Z,22.70
2019-02-15T08:29:51.047Z,21.47
2019-02-15T08:32:22.606Z,24.23
2019-02-15T08:34:54.632Z,23.63
2019-02-15T08:37:27.529Z,21.87
2019-02-15T08:39:58.496Z,23.10
2019-02-15T08:42:35.726Z,22.43
2019-02-15T08:45:09.889Z,22.87
2019-02-15T08:47:46.569Z,22.47
2019-02-15T08:50:20.567Z,22.53
2019-02-15T08:52:52.310Z,22.20
2019-02-15T08:55:23.362Z,20.93
2019-02-15T08:57:54.727Z,22.80
2019-02-15T09:00:26.010Z,23.87
2019-02-15T09:02:56.663Z,24.37
2019-02-15T09:05:29.288Z,23.30
2019-02-15T09:08:00.014Z,22.73
2019-02-15T09:10:31.354Z,23.40
2019-02-15T09:13:06.248Z,23.27
2019-02-15T09:15:48.905Z,24.53
2019-02-15T09:18:42.182Z,24.50
2019-02-15T09:21:31.857Z,24.77
2019-02-15T09:24:25.246Z,24.13
2019-02-15T09:27:13.168Z,24.60
2019-02-15T09:29:57.193Z,26.57
2019-02-15T09:32:42.167Z,26.30
2019-02-15T09:35:25.386Z,26.47
2019-02-15T09:38:13.967Z,26.77
2019-02-15T09:40:54.340Z,27.17
2019-02-15T09:43:37.975Z,27.57
2019-02-15T09:49:36.459Z,28.73
2019-02-15T09:52:11.231Z,28.33
2019-02-15T09:58:00.464Z,28.23
2019-02-15T10:00:34.128Z,28.67
2019-02-15T10:03:11.043Z,30.17
2019-02-15T10:05:44.003Z,28.57
2019-02-15T10:08:28.231Z,27.10
2019-02-15T10:11:08.403Z,30.00
2019-02-15T10:13:39.421Z,29.77
2019-02-15T10:16:10.697Z,28.17
2019-02-15T10:18:42.136Z,28.07
2019-02-15T10:21:15.030Z,30.13
2019-02-15T10:23:46.626Z,25.83
2019-02-15T10:26:17.357Z,26.03
2019-02-15T10:28:48.047Z,23.27
2019-02-15T10:31:18.752Z,23.97
2019-02-15T10:33:49.382Z,25.30
2019-02-15T10:36:20.230Z,25.37
2019-02-15T10:38:50.870Z,24.90
2019-02-15T10:41:21.989Z,25.13
2019-02-15T10:43:53.748Z,24.93
2019-02-15T10:46:25.379Z,24.47
2019-02-15T10:48:56.397Z,23.83
2019-02-15T10:51:27.671Z,24.03
2019-02-15T10:54:00.093Z,24.23
2019-02-15T10:56:31.112Z,22.30
2019-02-15T10:59:01.910Z,23.83
2019-02-15T11:01:32.534Z,27.50
2019-02-15T11:04:03.104Z,24.43
2019-02-15T11:06:33.520Z,24.17
2019-02-15T11:09:05.528Z,25.50
2019-02-15T11:11:37.908Z,26.40
2019-02-15T11:14:08.575Z,26.03
2019-02-15T11:16:46.940Z,25.60
2019-02-15T11:19:10.979Z,24.47
2019-02-15T11:21:41.751Z,25.87
2019-02-15T11:24:12.060Z,24.67
2019-02-15T11:26:42.351Z,24.73
2019-02-15T11:29:13.697Z,23.80
2019-02-15T11:31:44.000Z,25.63
2019-02-15T11:34:14.453Z,23.77
2019-02-15T11:36:45.140Z,25.87
2019-02-15T11:39:15.476Z,22.80
2019-02-15T11:41:45.775Z,23.57
2019-02-15T11:44:16.111Z,24.30
2019-02-15T11:46:46.392Z,24.37
2019-02-15T11:49:16.690Z,21.60
2019-02-15T11:51:47.029Z,23.03
2019-02-15T11:54:23.675Z,22.47
2019-02-15T11:56:49.353Z,23.23
2019-02-15T11:59:19.776Z,25.23
2019-02-15T12:01:50.250Z,23.03
2019-02-15T12:04:20.557Z,23.73
2019-02-15T12:06:50.857Z,22.60
2019-02-15T12:09:21.276Z,22.90
2019-02-15T12:11:51.631Z,24.53
2019-02-15T12:14:22.069Z,22.37
2019-02-15T12:16:52.435Z,24.47
2019-02-15T12:19:22.786Z,24.07
2019-02-15T12:21:53.148Z,22.87
2019-02-15T12:24:23.501Z,23.17
2019-02-15T12:26:54.159Z,24.37
2019-02-15T12:29:24.983Z,26.00
2019-02-15T12:31:55.306Z,26.77
2019-02-15T12:34:25.613Z,26.37
2019-02-15T12:36:55.927Z,28.20
2019-02-15T12:39:26.367Z,25.60
2019-02-15T12:41:56.638Z,25.53
2019-02-15T12:44:27.809Z,25.23
2019-02-15T12:46:58.305Z,26.43
2019-02-15T12:49:29.543Z,24.80
2019-02-15T12:51:59.899Z,25.47
2019-02-15T12:54:30.325Z,25.63
2019-02-15T12:57:00.675Z,27.37
2019-02-15T12:59:32.559Z,26.07
2019-02-15T13:02:02.875Z,26.13
2019-02-15T13:04:33.236Z,25.40
2019-02-15T13:07:03.862Z,26.37
2019-02-15T13:09:34.150Z,31.43
2019-02-15T13:12:04.486Z,30.67
2019-02-15T13:14:34.955Z,29.03
2019-02-15T13:17:05.458Z,55.30
2019-02-15T13:19:35.755Z,32.37
2019-02-15T13:22:07.154Z,26.90
2019-02-15T13:24:37.439Z,27.40
2019-02-15T13:27:07.828Z,46.47
2019-02-15T13:29:38.434Z,36.07
2019-02-15T13:32:09.819Z,29.50
2019-02-15T13:34:40.620Z,29.33
2019-02-15T13:37:12.232Z,29.93
2019-02-15T13:39:46.081Z,28.30
2019-02-15T13:42:16.564Z,28.70
2019-02-15T13:44:47.563Z,27.87
2019-02-15T13:47:17.831Z,29.97
2019-02-15T13:49:48.260Z,29.37
2019-02-15T13:52:18.651Z,31.03
2019-02-15T13:54:48.947Z,30.60
2019-02-15T13:57:19.312Z,29.00
2019-02-15T13:59:49.662Z,30.47
2019-02-15T14:02:19.995Z,31.60
2019-02-15T14:04:50.303Z,31.93
2019-02-15T14:07:20.788Z,30.47
2019-02-15T14:09:51.262Z,32.87
2019-02-15T14:12:21.601Z,33.87
2019-02-15T14:14:51.985Z,35.43
2019-02-15T14:17:22.361Z,33.40
2019-02-15T14:19:52.710Z,32.87
2019-02-15T14:22:23.075Z,33.77
2019-02-15T14:24:53.410Z,31.07
2019-02-15T14:27:23.840Z,33.40
2019-02-15T14:29:54.180Z,31.13
2019-02-15T14:32:24.820Z,31.97
2019-02-15T14:34:55.702Z,31.50
2019-02-15T14:37:26.057Z,31.13
2019-02-15T14:39:56.348Z,31.43
2019-02-15T14:42:26.659Z,31.47
2019-02-15T14:44:57.101Z,33.73
2019-02-15T14:47:27.379Z,32.67
2019-02-15T14:49:57.751Z,31.53
2019-02-15T14:52:28.028Z,31.20
2019-02-15T14:54:59.112Z,30.77
2019-02-15T14:57:29.560Z,29.70
2019-02-15T14:59:59.898Z,32.67
2019-02-15T15:02:31.237Z,32.33
2019-02-15T15:05:01.552Z,32.17
2019-02-15T15:07:33.003Z,34.17
2019-02-15T15:10:03.385Z,31.67
2019-02-15T15:12:33.760Z,31.73
2019-02-15T15:15:08.267Z,31.03
2019-02-15T15:17:38.666Z,31.20
2019-02-15T15:20:10.878Z,32.40
2019-02-15T15:22:41.305Z,34.37
2019-02-15T15:25:13.866Z,38.00
2019-02-15T15:27:44.190Z,41.20
2019-02-15T15:30:19.882Z,42.20
2019-02-15T15:32:51.369Z,45.97
2019-02-15T15:35:26.147Z,43.43
2019-02-15T15:37:56.979Z,46.03
2019-02-15T15:40:27.522Z,43.17
2019-02-15T15:42:59.185Z,43.97
2019-02-15T15:45:29.692Z,41.17
2019-02-15T15:48:00.381Z,45.20
2019-02-15T15:50:31.149Z,48.20
2019-02-15T15:53:02.139Z,51.63
2019-02-15T15:55:33.108Z,69.07
2019-02-15T15:58:04.077Z,63.33
2019-02-15T16:00:38.939Z,68.53
2019-02-15T16:03:07.580Z,54.17
2019-02-15T16:05:38.140Z,53.27
2019-02-15T16:08:08.539Z,54.93
2019-02-15T16:10:39.016Z,58.57
2019-02-15T16:13:09.662Z,53.93
2019-02-15T16:15:41.348Z,61.90
2019-02-15T16:18:12.186Z,66.83
2019-02-15T16:20:42.700Z,73.13
2019-02-15T16:23:13.591Z,64.20
2019-02-15T16:25:44.200Z,58.70
2019-02-15T16:28:14.851Z,48.80
2019-02-15T16:30:45.502Z,45.40
2019-02-15T16:33:16.075Z,43.57
2019-02-15T16:35:46.506Z,41.53
2019-02-15T16:38:17.317Z,41.67
2019-02-15T16:40:48.419Z,38.47
2019-02-15T16:43:19.502Z,42.50
2019-02-15T16:45:50.259Z,40.93
2019-02-15T16:48:20.562Z,37.43
2019-02-15T16:50:51.169Z,38.03
2019-02-15T16:53:21.594Z,35.27
2019-02-15T16:55:52.354Z,40.53
2019-02-15T16:58:23.132Z,39.67
2019-02-15T17:00:55.581Z,44.37
2019-02-15T17:03:27.172Z,39.87
2019-02-15T17:05:58.365Z,41.07
2019-02-15T17:08:31.669Z,46.33
2019-02-15T17:11:03.960Z,48.37
2019-02-15T17:13:34.804Z,47.93
2019-02-15T17:16:05.577Z,51.03
2019-02-15T17:18:37.220Z,50.53
2019-02-15T17:21:08.143Z,52.57
2019-02-15T17:23:38.549Z,51.73
2019-02-15T17:26:08.879Z,51.53
2019-02-15T17:28:40.375Z,47.47
2019-02-15T17:31:12.264Z,47.53
2019-02-15T17:34:02.463Z,46.43
2019-02-15T17:36:45.477Z,47.13
2019-02-15T17:39:24.255Z,45.97
2019-02-15T17:41:59.892Z,51.97
2019-02-15T17:44:38.777Z,50.90
2019-02-15T17:47:10.629Z,53.97
2019-02-15T17:49:45.140Z,53.07
2019-02-15T17:52:23.890Z,53.17
2019-02-15T17:54:59.444Z,53.47
2019-02-15T17:57:32.016Z,69.53
2019-02-15T18:00:09.951Z,61.10
2019-02-15T18:02:44.099Z,69.20
2019-02-15T18:05:19.018Z,58.30
2019-02-15T18:07:56.259Z,52.87
2019-02-15T18:10:31.011Z,51.63
2019-02-15T18:13:02.824Z,54.83
2019-02-15T18:15:47.273Z,64.30
2019-02-15T18:18:42.222Z,66.83
2019-02-15T18:21:22.721Z,58.97
2019-02-15T18:23:54.599Z,54.90
2019-02-15T18:26:28.737Z,52.87
2019-02-15T18:29:00.185Z,50.13
2019-02-15T18:31:31.769Z,44.93
2019-02-15T18:34:03.341Z,77.50
2019-02-15T18:36:36.659Z,92.40
2019-02-15T18:39:09.981Z,70.97
2019-02-15T18:41:46.268Z,76.20
2019-02-15T18:44:18.547Z,79.30
2019-02-15T18:46:51.141Z,82.13
2019-02-15T18:49:26.953Z,65.40
2019-02-15T18:52:11.119Z,60.67
2019-02-15T18:54:44.849Z,62.90
2019-02-15T18:57:15.145Z,66.53
2019-02-15T18:59:46.273Z,60.57
2019-02-15T19:02:24.266Z,54.33
2019-02-15T19:05:18.433Z,58.33
2019-02-15T19:08:03.372Z,48.03
2019-02-15T19:10:57.421Z,76.43
2019-02-15T19:13:33.362Z,91.43
2019-02-15T19:16:04.684Z,88.67
2019-02-15T19:18:35.600Z,58.90
2019-02-15T19:21:07.361Z,53.77
2019-02-15T19:23:39.521Z,57.50
2019-02-15T19:26:11.275Z,70.73
2019-02-15T19:28:43.099Z,60.93
2019-02-15T19:31:14.735Z,57.97
2019-02-15T19:33:48.701Z,60.37
2019-02-15T19:36:19.801Z,51.53
2019-02-15T19:38:52.217Z,51.07
2019-02-15T19:41:24.100Z,46.97
2019-02-15T19:43:56.547Z,51.87
2019-02-15T19:46:29.920Z,48.17
2019-02-15T19:49:01.180Z,47.00
2019-02-15T19:51:33.339Z,47.37
2019-02-15T19:54:04.879Z,46.13
2019-02-15T19:56:35.238Z,54.53
2019-02-15T19:59:09.416Z,77.10
2019-02-15T20:01:41.909Z,78.30
2019-02-15T20:04:13.755Z,75.23
2019-02-15T20:06:45.854Z,69.23
2019-02-15T20:09:19.639Z,72.73
2019-02-15T20:11:50.647Z,73.63
2019-02-15T20:14:21.715Z,75.50
2019-02-15T20:16:55.583Z,75.97
2019-02-15T20:19:26.649Z,76.23
2019-02-15T20:22:25.767Z,70.10
2019-02-15T20:25:10.422Z,72.77
2019-02-15T20:27:41.043Z,109.20
2019-02-15T20:30:19.400Z,95.63
2019-02-15T20:32:51.500Z,89.03
2019-02-15T20:35:25.579Z,118.70
2019-02-15T20:37:56.423Z,112.27
2019-02-15T20:40:28.910Z,99.47
2019-02-15T20:43:11.123Z,94.67
2019-02-15T20:45:50.602Z,92.03
2019-02-15T20:48:25.744Z,90.30
2019-02-15T20:50:56.821Z,88.60
2019-02-15T20:53:27.712Z,88.13
2019-02-15T20:55:58.172Z,97.97
2019-02-15T20:58:28.784Z,101.30
2019-02-15T21:01:00.742Z,117.73
2019-02-15T21:03:31.289Z,96.33
2019-02-15T21:06:14.565Z,90.47
2019-02-15T21:08:48.222Z,96.60
2019-02-15T21:11:29.173Z,94.33
2019-02-15T21:14:30.304Z,96.90
2019-02-15T21:17:09.583Z,96.93
2019-02-15T21:19:45.617Z,101.87
2019-02-15T21:22:21.392Z,108.13
2019-02-15T21:25:17.250Z,105.73
2019-02-15T21:27:59.872Z,113.07
2019-02-15T21:30:41.928Z,110.07
2019-02-15T21:33:17.057Z,112.33
2019-02-15T21:35:59.198Z,95.07
2019-02-15T21:38:37.935Z,88.17
2019-02-15T21:41:08.848Z,85.23
2019-02-15T21:43:54.781Z,78.73
2019-02-15T21:46:52.546Z,73.60
2019-02-15T21:49:48.120Z,66.77
2019-02-15T21:52:33.609Z,69.30
2019-02-15T21:55:16.506Z,75.83
2019-02-15T21:58:01.150Z,73.67
2019-02-15T22:00:26.661Z,74.80
2019-02-15T22:03:11.006Z,73.67
2019-02-15T22:06:08.342Z,81.17
2019-02-15T22:08:49.751Z,77.73
2019-02-15T22:11:23.904Z,76.80
2019-02-15T22:13:56.921Z,73.77
2019-02-15T22:16:32.084Z,70.30
2019-02-15T22:19:07.507Z,69.73
2019-02-15T22:21:38.615Z,68.13
2019-02-15T22:24:09.978Z,64.00
2019-02-15T22:26:40.940Z,52.90
2019-02-15T22:29:12.738Z,47.17
2019-02-15T22:31:45.888Z,49.33
2019-02-15T22:34:16.761Z,45.87
2019-02-15T22:36:48.229Z,38.93
2019-02-15T22:39:19.199Z,38.13
2019-02-15T22:41:49.916Z,34.73
2019-02-15T22:44:22.279Z,35.00
2019-02-15T22:47:15.705Z,34.93
2019-02-15T22:49:46.750Z,34.00
2019-02-15T22:52:18.801Z,37.70
2019-02-15T22:54:50.740Z,35.83
2019-02-15T22:57:22.361Z,33.97
2019-02-15T22:59:55.563Z,31.53
2019-02-15T23:02:27.175Z,30.57
2019-02-15T23:04:58.640Z,31.47
2019-02-15T23:07:30.001Z,30.50
2019-02-15T23:10:01.240Z,31.97
2019-02-15T23:12:32.708Z,31.17
2019-02-15T23:15:04.240Z,29.07
2019-02-15T23:17:35.169Z,30.43
2019-02-15T23:20:07.583Z,29.93
2019-02-15T23:22:39.173Z,31.70
2019-02-15T23:25:10.604Z,28.73
2019-02-15T23:27:42.079Z,27.63
2019-02-15T23:30:14.341Z,28.27
2019-02-15T23:32:45.464Z,27.73
2019-02-15T23:35:17.222Z,28.03
2019-02-15T23:37:48.762Z,29.10
2019-02-15T23:40:19.726Z,30.50
2019-02-15T23:42:50.924Z,29.53
2019-02-15T23:45:21.904Z,30.63
2019-02-15T23:47:52.618Z,32.97
2019-02-15T23:50:23.359Z,34.63
2019-02-15T23:52:54.442Z,35.90
2019-02-15T23:55:25.446Z,34.10
2019-02-15T23:57:56.363Z,33.80
